sensor_id;sensor_type;location;lat;lon;timestamp;temperature;humidity
580;DHT22;276;48.392;9.950;2023-02-15T00:01:33;5.40;99.90
580;DHT22;276;48.392;9.950;2023-02-15T00:03:59;5.30;99.90
580;DHT22;276;48.392;9.950;2023-02-15T00:06:29;5.30;99.90
580;DHT22;276;48.392;9.950;2023-02-15T00:08:57;5.30;99.90
580;DHT22;276;48.392;9.950;2023-02-15T00:11:26;5.30;99.90
580;DHT22;276;48.392;9.950;2023-02-15T00:14:23;5.30;99.90
580;DHT22;276;48.392;9.950;2023-02-15T00:16:54;5.20;99.90
580;DHT22;276;48.392;9.950;2023-02-15T00:19:25;5.30;99.90
580;DHT22;276;48.392;9.950;2023-02-15T00:21:53;5.20;99.90
580;DHT22;276;48.392;9.950;2023-02-15T00:24:19;5.10;99.90
580;DHT22;276;48.392;9.950;2023-02-15T00:26:46;5.20;99.90
580;DHT22;276;48.392;9.950;2023-02-15T00:29:20;5.20;99.90
580;DHT22;276;48.392;9.950;2023-02-15T00:31:45;5.20;99.90
580;DHT22;276;48.392;9.950;2023-02-15T00:34:20;5.20;99.90
580;DHT22;276;48.392;9.950;2023-02-15T00:36:46;5.20;99.90
580;DHT22;276;48.392;9.950;2023-02-15T00:39:12;5.20;99.90
580;DHT22;276;48.392;9.950;2023-02-15T00:41:41;5.20;99.90
580;DHT22;276;48.392;9.950;2023-02-15T00:44:09;5.20;99.90
580;DHT22;276;48.392;9.950;2023-02-15T00:46:36;5.20;99.90
580;DHT22;276;48.392;9.950;2023-02-15T00:49:05;5.20;99.90
580;DHT22;276;48.392;9.950;2023-02-15T00:51:33;5.20;99.90
580;DHT22;276;48.392;9.950;2023-02-15T00:53:58;5.10;99.90
580;DHT22;276;48.392;9.950;2023-02-15T00:56:26;5.10;99.90
580;DHT22;276;48.392;9.950;2023-02-15T00:58:53;5.10;99.90
580;DHT22;276;48.392;9.950;2023-02-15T01:01:20;5.10;99.90
580;DHT22;276;48.392;9.950;2023-02-15T01:03:46;5.10;99.90
580;DHT22;276;48.392;9.950;2023-02-15T01:06:15;5.20;99.90
580;DHT22;276;48.392;9.950;2023-02-15T01:08:42;5.20;99.90
580;DHT22;276;48.392;9.950;2023-02-15T01:11:15;5.20;99.90
580;DHT22;276;48.392;9.950;2023-02-15T01:13:41;5.30;99.90
580;DHT22;276;48.392;9.950;2023-02-15T01:16:09;5.30;99.90
580;DHT22;276;48.392;9.950;2023-02-15T01:18:35;5.30;99.90
580;DHT22;276;48.392;9.950;2023-02-15T01:21:09;5.30;99.90
580;DHT22;276;48.392;9.950;2023-02-15T01:23:39;5.30;99.90
580;DHT22;276;48.392;9.950;2023-02-15T01:26:05;5.30;99.90
580;DHT22;276;48.392;9.950;2023-02-15T01:28:31;5.30;99.90
580;DHT22;276;48.392;9.950;2023-02-15T01:31:03;5.30;99.90
580;DHT22;276;48.392;9.950;2023-02-15T01:33:31;5.20;99.90
580;DHT22;276;48.392;9.950;2023-02-15T01:36:00;5.20;99.90
580;DHT22;276;48.392;9.950;2023-02-15T01:38:28;5.20;99.90
580;DHT22;276;48.392;9.950;2023-02-15T01:40:54;5.10;99.90
580;DHT22;276;48.392;9.950;2023-02-15T01:43:46;5.10;99.90
580;DHT22;276;48.392;9.950;2023-02-15T01:46:14;5.10;99.90
580;DHT22;276;48.392;9.950;2023-02-15T01:48:51;5.10;99.90
580;DHT22;276;48.392;9.950;2023-02-15T01:51:25;5.20;99.90
580;DHT22;276;48.392;9.950;2023-02-15T01:54:01;5.20;99.90
580;DHT22;276;48.392;9.950;2023-02-15T01:56:30;5.20;99.90
580;DHT22;276;48.392;9.950;2023-02-15T01:59:05;5.20;99.90
580;DHT22;276;48.392;9.950;2023-02-15T02:01:31;5.20;99.90
580;DHT22;276;48.392;9.950;2023-02-15T02:06:36;5.20;99.90
580;DHT22;276;48.392;9.950;2023-02-15T02:09:05;5.20;99.90
580;DHT22;276;48.392;9.950;2023-02-15T02:11:34;5.20;99.90
580;DHT22;276;48.392;9.950;2023-02-15T02:14:00;5.20;99.90
580;DHT22;276;48.392;9.950;2023-02-15T02:42:20;5.00;99.90
580;DHT22;276;48.392;9.950;2023-02-15T02:45:02;5.00;99.90
580;DHT22;276;48.392;9.950;2023-02-15T02:47:47;5.00;99.90
580;DHT22;276;48.392;9.950;2023-02-15T02:50:17;4.90;99.90
580;DHT22;276;48.392;9.950;2023-02-15T02:52:50;5.00;99.90
580;DHT22;276;48.392;9.950;2023-02-15T02:55:26;5.00;99.90
580;DHT22;276;48.392;9.950;2023-02-15T02:58:29;5.00;99.90
580;DHT22;276;48.392;9.950;2023-02-15T03:01:03;4.90;99.90
580;DHT22;276;48.392;9.950;2023-02-15T03:03:41;4.90;99.90
580;DHT22;276;48.392;9.950;2023-02-15T03:06:20;4.90;99.90
580;DHT22;276;48.392;9.950;2023-02-15T03:09:00;4.90;99.90
580;DHT22;276;48.392;9.950;2023-02-15T03:11:26;5.00;99.90
580;DHT22;276;48.392;9.950;2023-02-15T03:13:52;4.90;99.90
580;DHT22;276;48.392;9.950;2023-02-15T03:16:19;4.90;99.90
580;DHT22;276;48.392;9.950;2023-02-15T03:21:34;4.80;99.90
580;DHT22;276;48.392;9.950;2023-02-15T03:24:11;4.80;99.90
580;DHT22;276;48.392;9.950;2023-02-15T03:26:39;4.80;99.90
580;DHT22;276;48.392;9.950;2023-02-15T03:29:09;4.80;99.90
580;DHT22;276;48.392;9.950;2023-02-15T03:31:39;4.80;99.90
580;DHT22;276;48.392;9.950;2023-02-15T03:34:11;4.80;99.90
580;DHT22;276;48.392;9.950;2023-02-15T03:41:54;4.90;99.90
580;DHT22;276;48.392;9.950;2023-02-15T03:45:01;4.90;99.90
580;DHT22;276;48.392;9.950;2023-02-15T03:47:32;4.90;99.90
580;DHT22;276;48.392;9.950;2023-02-15T03:52:57;4.90;99.90
580;DHT22;276;48.392;9.950;2023-02-15T03:55:24;4.90;99.90
580;DHT22;276;48.392;9.950;2023-02-15T03:57:50;5.00;99.90
580;DHT22;276;48.392;9.950;2023-02-15T04:00:37;4.90;99.90
580;DHT22;276;48.392;9.950;2023-02-15T04:03:44;5.00;99.90
580;DHT22;276;48.392;9.950;2023-02-15T04:06:15;5.00;99.90
580;DHT22;276;48.392;9.950;2023-02-15T04:08:43;5.00;99.90
580;DHT22;276;48.392;9.950;2023-02-15T04:11:28;4.90;99.90
580;DHT22;276;48.392;9.950;2023-02-15T04:13:53;4.90;99.90
580;DHT22;276;48.392;9.950;2023-02-15T04:16:28;4.90;99.90
580;DHT22;276;48.392;9.950;2023-02-15T04:18:56;4.90;99.90
580;DHT22;276;48.392;9.950;2023-02-15T04:21:40;4.90;99.90
580;DHT22;276;48.392;9.950;2023-02-15T04:24:26;4.80;99.90
580;DHT22;276;48.392;9.950;2023-02-15T04:27:10;4.80;99.90
580;DHT22;276;48.392;9.950;2023-02-15T04:29:36;4.80;99.90
580;DHT22;276;48.392;9.950;2023-02-15T04:32:02;4.80;99.90
580;DHT22;276;48.392;9.950;2023-02-15T04:34:27;4.70;99.90
580;DHT22;276;48.392;9.950;2023-02-15T04:36:55;4.60;99.90
580;DHT22;276;48.392;9.950;2023-02-15T04:39:21;4.50;99.90
580;DHT22;276;48.392;9.950;2023-02-15T04:41:46;4.50;99.90
580;DHT22;276;48.392;9.950;2023-02-15T04:44:13;4.40;99.90
580;DHT22;276;48.392;9.950;2023-02-15T04:46:38;4.40;99.90
580;DHT22;276;48.392;9.950;2023-02-15T04:49:08;4.30;99.90
580;DHT22;276;48.392;9.950;2023-02-15T04:51:33;4.30;99.90
580;DHT22;276;48.392;9.950;2023-02-15T04:54:01;4.30;99.90
580;DHT22;276;48.392;9.950;2023-02-15T04:56:27;4.20;99.90
580;DHT22;276;48.392;9.950;2023-02-15T04:58:57;4.10;99.90
580;DHT22;276;48.392;9.950;2023-02-15T05:01:23;4.00;99.90
580;DHT22;276;48.392;9.950;2023-02-15T05:03:48;4.00;99.90
580;DHT22;276;48.392;9.950;2023-02-15T05:06:14;3.90;99.90
580;DHT22;276;48.392;9.950;2023-02-15T05:08:40;3.90;99.90
580;DHT22;276;48.392;9.950;2023-02-15T05:11:05;3.90;99.90
580;DHT22;276;48.392;9.950;2023-02-15T05:13:33;3.90;99.90
580;DHT22;276;48.392;9.950;2023-02-15T05:15:59;3.90;99.90
580;DHT22;276;48.392;9.950;2023-02-15T05:18:24;4.00;99.90
580;DHT22;276;48.392;9.950;2023-02-15T05:20:52;4.00;99.90
580;DHT22;276;48.392;9.950;2023-02-15T05:23:18;4.00;99.90
580;DHT22;276;48.392;9.950;2023-02-15T05:25:50;3.90;99.90
580;DHT22;276;48.392;9.950;2023-02-15T05:28:36;3.90;99.90
580;DHT22;276;48.392;9.950;2023-02-15T05:31:06;4.00;99.90
580;DHT22;276;48.392;9.950;2023-02-15T05:33:34;4.00;99.90
580;DHT22;276;48.392;9.950;2023-02-15T05:36:03;4.10;99.90
580;DHT22;276;48.392;9.950;2023-02-15T05:38:29;4.10;99.90
580;DHT22;276;48.392;9.950;2023-02-15T05:40:57;4.10;99.90
580;DHT22;276;48.392;9.950;2023-02-15T05:43:23;4.10;99.90
580;DHT22;276;48.392;9.950;2023-02-15T05:45:53;4.10;99.90
580;DHT22;276;48.392;9.950;2023-02-15T05:48:21;4.20;99.90
580;DHT22;276;48.392;9.950;2023-02-15T05:50:57;4.20;99.90
580;DHT22;276;48.392;9.950;2023-02-15T05:53:26;4.30;99.90
580;DHT22;276;48.392;9.950;2023-02-15T05:55:51;4.30;99.90
580;DHT22;276;48.392;9.950;2023-02-15T05:58:17;4.30;99.90
580;DHT22;276;48.392;9.950;2023-02-15T06:00:43;4.30;99.90
580;DHT22;276;48.392;9.950;2023-02-15T06:03:08;4.20;99.90
580;DHT22;276;48.392;9.950;2023-02-15T06:05:36;4.10;99.90
580;DHT22;276;48.392;9.950;2023-02-15T06:08:02;4.10;99.90
580;DHT22;276;48.392;9.950;2023-02-15T06:10:30;4.20;99.90
580;DHT22;276;48.392;9.950;2023-02-15T06:12:55;4.20;99.90
580;DHT22;276;48.392;9.950;2023-02-15T06:15:21;4.20;99.90
580;DHT22;276;48.392;9.950;2023-02-15T06:17:46;4.30;99.90
580;DHT22;276;48.392;9.950;2023-02-15T06:20:12;4.30;99.90
580;DHT22;276;48.392;9.950;2023-02-15T06:22:40;4.40;99.90
580;DHT22;276;48.392;9.950;2023-02-15T06:25:06;4.30;99.90
580;DHT22;276;48.392;9.950;2023-02-15T06:27:35;4.30;99.90
580;DHT22;276;48.392;9.950;2023-02-15T06:30:04;4.30;99.90
580;DHT22;276;48.392;9.950;2023-02-15T06:32:32;4.30;99.90
580;DHT22;276;48.392;9.950;2023-02-15T06:34:58;4.30;99.90
580;DHT22;276;48.392;9.950;2023-02-15T06:37:23;4.30;99.90
580;DHT22;276;48.392;9.950;2023-02-15T06:39:51;4.20;99.90
580;DHT22;276;48.392;9.950;2023-02-15T06:42:17;4.20;99.90
580;DHT22;276;48.392;9.950;2023-02-15T06:44:46;4.20;99.90
580;DHT22;276;48.392;9.950;2023-02-15T06:47:11;4.20;99.90
580;DHT22;276;48.392;9.950;2023-02-15T06:49:39;4.10;99.90
580;DHT22;276;48.392;9.950;2023-02-15T06:52:07;4.10;99.90
580;DHT22;276;48.392;9.950;2023-02-15T06:54:35;4.20;99.90
580;DHT22;276;48.392;9.950;2023-02-15T06:57:03;4.10;99.90
580;DHT22;276;48.392;9.950;2023-02-15T06:59:30;4.10;99.90
580;DHT22;276;48.392;9.950;2023-02-15T07:01:56;4.10;99.90
580;DHT22;276;48.392;9.950;2023-02-15T07:04:22;4.10;99.90
580;DHT22;276;48.392;9.950;2023-02-15T07:06:47;4.00;99.90
580;DHT22;276;48.392;9.950;2023-02-15T07:09:13;4.10;99.90
580;DHT22;276;48.392;9.950;2023-02-15T07:11:41;4.10;99.90
580;DHT22;276;48.392;9.950;2023-02-15T07:14:28;4.10;99.90
580;DHT22;276;48.392;9.950;2023-02-15T07:16:58;4.10;99.90
580;DHT22;276;48.392;9.950;2023-02-15T07:19:26;4.10;99.90
580;DHT22;276;48.392;9.950;2023-02-15T07:21:52;4.10;99.90
580;DHT22;276;48.392;9.950;2023-02-15T07:24:19;4.10;99.90
580;DHT22;276;48.392;9.950;2023-02-15T07:26:49;4.10;99.90
580;DHT22;276;48.392;9.950;2023-02-15T07:29:17;4.10;99.90
580;DHT22;276;48.392;9.950;2023-02-15T07:31:43;4.20;99.90
580;DHT22;276;48.392;9.950;2023-02-15T07:34:10;4.30;99.90
580;DHT22;276;48.392;9.950;2023-02-15T07:36:36;4.30;99.90
580;DHT22;276;48.392;9.950;2023-02-15T07:39:02;4.30;99.90
580;DHT22;276;48.392;9.950;2023-02-15T07:41:30;4.40;99.90
580;DHT22;276;48.392;9.950;2023-02-15T07:43:56;4.40;99.90
580;DHT22;276;48.392;9.950;2023-02-15T07:46:21;4.40;99.90
580;DHT22;276;48.392;9.950;2023-02-15T07:48:47;4.40;99.90
580;DHT22;276;48.392;9.950;2023-02-15T07:51:15;4.40;99.90
580;DHT22;276;48.392;9.950;2023-02-15T07:53:43;4.40;99.90
580;DHT22;276;48.392;9.950;2023-02-15T07:56:13;4.40;99.90
580;DHT22;276;48.392;9.950;2023-02-15T07:58:44;4.30;99.90
580;DHT22;276;48.392;9.950;2023-02-15T08:01:19;4.30;99.90
580;DHT22;276;48.392;9.950;2023-02-15T08:03:45;4.20;99.90
580;DHT22;276;48.392;9.950;2023-02-15T08:06:11;4.10;99.90
580;DHT22;276;48.392;9.950;2023-02-15T08:08:39;4.00;99.90
580;DHT22;276;48.392;9.950;2023-02-15T08:11:20;4.00;99.90
580;DHT22;276;48.392;9.950;2023-02-15T08:14:10;4.00;99.90
580;DHT22;276;48.392;9.950;2023-02-15T08:16:43;4.00;99.90
580;DHT22;276;48.392;9.950;2023-02-15T08:21:46;4.00;99.90
580;DHT22;276;48.392;9.950;2023-02-15T08:24:13;4.00;99.90
580;DHT22;276;48.392;9.950;2023-02-15T08:26:42;4.00;99.90
580;DHT22;276;48.392;9.950;2023-02-15T08:29:13;4.10;99.90
580;DHT22;276;48.392;9.950;2023-02-15T08:31:41;4.10;99.90
580;DHT22;276;48.392;9.950;2023-02-15T08:34:08;4.20;99.90
580;DHT22;276;48.392;9.950;2023-02-15T08:36:36;4.20;99.90
580;DHT22;276;48.392;9.950;2023-02-15T08:39:04;4.20;99.90
580;DHT22;276;48.392;9.950;2023-02-15T08:41:34;4.30;99.90
580;DHT22;276;48.392;9.950;2023-02-15T08:44:06;4.30;99.90
580;DHT22;276;48.392;9.950;2023-02-15T08:46:34;4.30;99.90
580;DHT22;276;48.392;9.950;2023-02-15T08:49:01;4.40;99.90
580;DHT22;276;48.392;9.950;2023-02-15T08:51:33;4.40;99.90
580;DHT22;276;48.392;9.950;2023-02-15T08:54:01;4.40;99.90
580;DHT22;276;48.392;9.950;2023-02-15T08:56:30;4.40;99.90
580;DHT22;276;48.392;9.950;2023-02-15T08:58:57;4.50;99.90
580;DHT22;276;48.392;9.950;2023-02-15T09:01:27;4.50;99.90
580;DHT22;276;48.392;9.950;2023-02-15T09:04:07;4.60;99.90
580;DHT22;276;48.392;9.950;2023-02-15T09:06:36;4.70;99.90
580;DHT22;276;48.392;9.950;2023-02-15T09:09:03;4.60;99.90
580;DHT22;276;48.392;9.950;2023-02-15T09:11:37;4.70;99.90
580;DHT22;276;48.392;9.950;2023-02-15T09:14:09;4.60;99.90
580;DHT22;276;48.392;9.950;2023-02-15T09:16:37;4.60;99.90
580;DHT22;276;48.392;9.950;2023-02-15T09:19:03;4.50;99.90
580;DHT22;276;48.392;9.950;2023-02-15T09:21:33;4.50;99.90
580;DHT22;276;48.392;9.950;2023-02-15T09:24:03;4.50;99.90
580;DHT22;276;48.392;9.950;2023-02-15T09:26:31;4.50;99.90
580;DHT22;276;48.392;9.950;2023-02-15T09:28:59;4.50;99.90
580;DHT22;276;48.392;9.950;2023-02-15T09:31:31;4.40;99.90
580;DHT22;276;48.392;9.950;2023-02-15T09:33:59;4.40;99.90
580;DHT22;276;48.392;9.950;2023-02-15T09:36:33;4.30;99.90
580;DHT22;276;48.392;9.950;2023-02-15T10:12:49;4.30;99.90
580;DHT22;276;48.392;9.950;2023-02-15T10:20:57;4.30;99.90
580;DHT22;276;48.392;9.950;2023-02-15T10:23:37;4.40;99.90
580;DHT22;276;48.392;9.950;2023-02-15T10:26:28;4.40;99.90
580;DHT22;276;48.392;9.950;2023-02-15T10:34:12;4.40;99.90
580;DHT22;276;48.392;9.950;2023-02-15T11:01:26;4.80;99.90
580;DHT22;276;48.392;9.950;2023-02-15T11:06:49;5.00;99.90
580;DHT22;276;48.392;9.950;2023-02-15T11:09:18;5.00;99.90
580;DHT22;276;48.392;9.950;2023-02-15T11:11:49;5.00;99.90
580;DHT22;276;48.392;9.950;2023-02-15T11:17:28;5.20;99.90
580;DHT22;276;48.392;9.950;2023-02-15T11:22:37;5.50;99.90
580;DHT22;276;48.392;9.950;2023-02-15T11:25:17;5.70;99.90
580;DHT22;276;48.392;9.950;2023-02-15T11:27:48;5.80;99.90
580;DHT22;276;48.392;9.950;2023-02-15T11:30:25;5.80;99.90
580;DHT22;276;48.392;9.950;2023-02-15T11:32:56;5.80;99.90
580;DHT22;276;48.392;9.950;2023-02-15T11:38:12;5.90;99.90
580;DHT22;276;48.392;9.950;2023-02-15T11:40:51;6.10;99.90
580;DHT22;276;48.392;9.950;2023-02-15T11:43:31;6.10;99.90
580;DHT22;276;48.392;9.950;2023-02-15T11:46:00;6.10;99.90
580;DHT22;276;48.392;9.950;2023-02-15T11:48:32;6.20;99.90
580;DHT22;276;48.392;9.950;2023-02-15T11:51:01;6.20;99.90
580;DHT22;276;48.392;9.950;2023-02-15T11:53:32;6.30;99.90
580;DHT22;276;48.392;9.950;2023-02-15T11:56:00;6.40;99.90
580;DHT22;276;48.392;9.950;2023-02-15T12:01:24;7.10;99.90
580;DHT22;276;48.392;9.950;2023-02-15T12:03:57;7.90;99.90
580;DHT22;276;48.392;9.950;2023-02-15T12:06:33;8.70;99.90
580;DHT22;276;48.392;9.950;2023-02-15T12:11:40;10.10;99.90
580;DHT22;276;48.392;9.950;2023-02-15T12:14:08;10.80;99.90
580;DHT22;276;48.392;9.950;2023-02-15T12:16:42;11.30;99.90
580;DHT22;276;48.392;9.950;2023-02-15T12:19:29;11.80;99.90
580;DHT22;276;48.392;9.950;2023-02-15T12:21:57;12.00;99.50
580;DHT22;276;48.392;9.950;2023-02-15T12:24:32;12.00;99.40
580;DHT22;276;48.392;9.950;2023-02-15T12:27:15;11.70;98.40
580;DHT22;276;48.392;9.950;2023-02-15T12:29:44;11.50;99.00
580;DHT22;276;48.392;9.950;2023-02-15T12:32:29;11.40;99.20
580;DHT22;276;48.392;9.950;2023-02-15T12:35:09;11.30;99.40
580;DHT22;276;48.392;9.950;2023-02-15T12:37:38;11.30;99.60
580;DHT22;276;48.392;9.950;2023-02-15T12:40:25;11.10;99.70
580;DHT22;276;48.392;9.950;2023-02-15T12:42:53;11.00;99.90
580;DHT22;276;48.392;9.950;2023-02-15T12:45:27;10.90;99.90
580;DHT22;276;48.392;9.950;2023-02-15T12:50:36;10.70;99.90
580;DHT22;276;48.392;9.950;2023-02-15T12:53:15;10.70;99.90
580;DHT22;276;48.392;9.950;2023-02-15T12:56:11;10.70;99.90
580;DHT22;276;48.392;9.950;2023-02-15T12:58:41;10.60;99.90
580;DHT22;276;48.392;9.950;2023-02-15T13:01:23;10.60;99.90
580;DHT22;276;48.392;9.950;2023-02-15T13:03:59;10.70;99.90
580;DHT22;276;48.392;9.950;2023-02-15T13:06:29;10.80;99.90
580;DHT22;276;48.392;9.950;2023-02-15T13:09:05;10.80;99.90
580;DHT22;276;48.392;9.950;2023-02-15T13:11:36;10.90;99.90
580;DHT22;276;48.392;9.950;2023-02-15T13:16:44;11.00;99.90
580;DHT22;276;48.392;9.950;2023-02-15T13:21:56;11.10;99.90
580;DHT22;276;48.392;9.950;2023-02-15T13:24:47;11.10;99.90
580;DHT22;276;48.392;9.950;2023-02-15T13:27:19;11.10;99.90
580;DHT22;276;48.392;9.950;2023-02-15T13:29:52;11.10;99.90
580;DHT22;276;48.392;9.950;2023-02-15T13:32:35;11.20;99.90
580;DHT22;276;48.392;9.950;2023-02-15T13:35:04;11.20;99.90
580;DHT22;276;48.392;9.950;2023-02-15T13:40:31;11.20;99.90
580;DHT22;276;48.392;9.950;2023-02-15T13:45:57;11.30;99.90
580;DHT22;276;48.392;9.950;2023-02-15T13:48:36;11.30;99.90
580;DHT22;276;48.392;9.950;2023-02-15T13:57:16;11.40;99.90
580;DHT22;276;48.392;9.950;2023-02-15T14:05:45;11.20;99.90
580;DHT22;276;48.392;9.950;2023-02-15T14:08:40;11.20;99.90
580;DHT22;276;48.392;9.950;2023-02-15T14:11:37;11.20;99.90
580;DHT22;276;48.392;9.950;2023-02-15T14:17:03;11.10;99.90
580;DHT22;276;48.392;9.950;2023-02-15T14:30:44;10.90;99.90
580;DHT22;276;48.392;9.950;2023-02-15T14:35:43;10.80;99.90
580;DHT22;276;48.392;9.950;2023-02-15T14:41:07;10.80;99.90
580;DHT22;276;48.392;9.950;2023-02-15T14:43:53;10.80;99.90
580;DHT22;276;48.392;9.950;2023-02-15T14:49:26;10.90;99.90
580;DHT22;276;48.392;9.950;2023-02-15T14:52:05;10.90;99.90
580;DHT22;276;48.392;9.950;2023-02-15T15:04:39;10.80;99.90
580;DHT22;276;48.392;9.950;2023-02-15T15:07:23;10.80;99.90
580;DHT22;276;48.392;9.950;2023-02-15T15:12:44;10.90;99.90
580;DHT22;276;48.392;9.950;2023-02-15T15:17:57;10.90;99.90
580;DHT22;276;48.392;9.950;2023-02-15T15:25:56;10.90;99.90
580;DHT22;276;48.392;9.950;2023-02-15T15:42:11;10.80;99.90
580;DHT22;276;48.392;9.950;2023-02-15T15:45:03;10.80;99.90
580;DHT22;276;48.392;9.950;2023-02-15T15:50:24;10.80;99.90
580;DHT22;276;48.392;9.950;2023-02-15T15:52:55;10.80;99.90
580;DHT22;276;48.392;9.950;2023-02-15T15:55:28;10.70;99.90
580;DHT22;276;48.392;9.950;2023-02-15T15:58:01;10.70;99.90
580;DHT22;276;48.392;9.950;2023-02-15T16:05:48;10.30;99.90
580;DHT22;276;48.392;9.950;2023-02-15T16:08:37;10.20;99.90
580;DHT22;276;48.392;9.950;2023-02-15T16:11:22;10.20;99.90
580;DHT22;276;48.392;9.950;2023-02-15T16:13:54;10.20;99.90
580;DHT22;276;48.392;9.950;2023-02-15T16:16:30;10.10;99.90
580;DHT22;276;48.392;9.950;2023-02-15T16:18:57;10.10;99.90
580;DHT22;276;48.392;9.950;2023-02-15T16:21:33;10.00;99.90
580;DHT22;276;48.392;9.950;2023-02-15T16:24:22;9.90;99.90
580;DHT22;276;48.392;9.950;2023-02-15T16:29:39;9.70;99.90
580;DHT22;276;48.392;9.950;2023-02-15T16:32:26;9.70;99.90
580;DHT22;276;48.392;9.950;2023-02-15T16:34:53;9.60;99.90
580;DHT22;276;48.392;9.950;2023-02-15T16:37:24;9.50;99.90
580;DHT22;276;48.392;9.950;2023-02-15T16:39:54;9.50;99.90
580;DHT22;276;48.392;9.950;2023-02-15T16:42:24;9.40;99.90
580;DHT22;276;48.392;9.950;2023-02-15T16:45:08;9.40;99.90
580;DHT22;276;48.392;9.950;2023-02-15T16:47:43;9.30;99.90
580;DHT22;276;48.392;9.950;2023-02-15T16:50:45;9.20;99.90
580;DHT22;276;48.392;9.950;2023-02-15T16:53:20;9.10;99.90
580;DHT22;276;48.392;9.950;2023-02-15T16:55:58;9.00;99.90
580;DHT22;276;48.392;9.950;2023-02-15T17:01:09;8.80;99.90
580;DHT22;276;48.392;9.950;2023-02-15T17:03:36;8.70;99.90
580;DHT22;276;48.392;9.950;2023-02-15T17:06:17;8.70;99.90
580;DHT22;276;48.392;9.950;2023-02-15T17:08:48;8.60;99.90
580;DHT22;276;48.392;9.950;2023-02-15T17:11:19;8.50;99.90
580;DHT22;276;48.392;9.950;2023-02-15T17:16:35;8.30;99.90
580;DHT22;276;48.392;9.950;2023-02-15T17:19:16;8.30;99.90
580;DHT22;276;48.392;9.950;2023-02-15T17:22:04;8.20;99.90
580;DHT22;276;48.392;9.950;2023-02-15T17:24:37;8.10;99.90
580;DHT22;276;48.392;9.950;2023-02-15T17:27:14;8.10;99.90
580;DHT22;276;48.392;9.950;2023-02-15T17:29:48;8.00;99.90
580;DHT22;276;48.392;9.950;2023-02-15T17:32:23;7.90;99.90
580;DHT22;276;48.392;9.950;2023-02-15T17:37:49;7.90;99.90
580;DHT22;276;48.392;9.950;2023-02-15T17:42:53;7.80;99.90
580;DHT22;276;48.392;9.950;2023-02-15T17:45:20;7.70;99.90
580;DHT22;276;48.392;9.950;2023-02-15T17:47:47;7.60;99.90
580;DHT22;276;48.392;9.950;2023-02-15T17:50:19;7.60;99.90
580;DHT22;276;48.392;9.950;2023-02-15T17:52:45;7.50;99.90
580;DHT22;276;48.392;9.950;2023-02-15T17:55:14;7.50;99.90
580;DHT22;276;48.392;9.950;2023-02-15T17:57:59;7.40;99.90
580;DHT22;276;48.392;9.950;2023-02-15T18:00:29;7.40;99.90
580;DHT22;276;48.392;9.950;2023-02-15T18:03:16;7.30;99.90
580;DHT22;276;48.392;9.950;2023-02-15T18:06:01;7.30;99.90
580;DHT22;276;48.392;9.950;2023-02-15T18:08:45;7.20;99.90
580;DHT22;276;48.392;9.950;2023-02-15T18:11:31;7.20;99.90
580;DHT22;276;48.392;9.950;2023-02-15T18:14:06;7.20;99.90
580;DHT22;276;48.392;9.950;2023-02-15T18:16:35;7.10;99.90
580;DHT22;276;48.392;9.950;2023-02-15T18:19:05;7.10;99.90
580;DHT22;276;48.392;9.950;2023-02-15T18:21:36;7.00;99.90
580;DHT22;276;48.392;9.950;2023-02-15T18:24:07;6.90;99.90
580;DHT22;276;48.392;9.950;2023-02-15T18:26:38;6.90;99.90
580;DHT22;276;48.392;9.950;2023-02-15T18:29:05;6.80;99.90
580;DHT22;276;48.392;9.950;2023-02-15T18:31:34;6.80;99.90
580;DHT22;276;48.392;9.950;2023-02-15T18:34:00;6.80;99.90
580;DHT22;276;48.392;9.950;2023-02-15T18:36:50;6.70;99.90
580;DHT22;276;48.392;9.950;2023-02-15T18:39:38;6.70;99.90
580;DHT22;276;48.392;9.950;2023-02-15T18:44:55;6.60;99.90
580;DHT22;276;48.392;9.950;2023-02-15T18:47:26;6.60;99.90
580;DHT22;276;48.392;9.950;2023-02-15T18:49:51;6.50;99.90
580;DHT22;276;48.392;9.950;2023-02-15T18:52:21;6.50;99.90
580;DHT22;276;48.392;9.950;2023-02-15T18:54:54;6.50;99.90
580;DHT22;276;48.392;9.950;2023-02-15T18:57:20;6.40;99.90
580;DHT22;276;48.392;9.950;2023-02-15T18:59:48;6.40;99.90
580;DHT22;276;48.392;9.950;2023-02-15T19:02:18;6.40;99.90
580;DHT22;276;48.392;9.950;2023-02-15T19:04:44;6.40;99.90
580;DHT22;276;48.392;9.950;2023-02-15T19:07:21;6.40;99.90
580;DHT22;276;48.392;9.950;2023-02-15T19:09:52;6.40;99.90
580;DHT22;276;48.392;9.950;2023-02-15T19:12:18;6.30;99.90
580;DHT22;276;48.392;9.950;2023-02-15T19:14:44;6.30;99.90
580;DHT22;276;48.392;9.950;2023-02-15T19:17:16;6.30;99.90
580;DHT22;276;48.392;9.950;2023-02-15T19:19:45;6.20;99.90
580;DHT22;276;48.392;9.950;2023-02-15T19:22:28;6.20;99.90
580;DHT22;276;48.392;9.950;2023-02-15T19:24:59;6.20;99.90
580;DHT22;276;48.392;9.950;2023-02-15T19:27:28;6.10;99.90
580;DHT22;276;48.392;9.950;2023-02-15T19:29:57;6.10;99.90
580;DHT22;276;48.392;9.950;2023-02-15T19:32:26;6.10;99.90
580;DHT22;276;48.392;9.950;2023-02-15T19:34:55;6.00;99.90
580;DHT22;276;48.392;9.950;2023-02-15T19:37:25;6.00;99.90
580;DHT22;276;48.392;9.950;2023-02-15T19:39:52;6.00;99.90
580;DHT22;276;48.392;9.950;2023-02-15T19:42:21;6.00;99.90
580;DHT22;276;48.392;9.950;2023-02-15T19:44:50;6.00;99.90
580;DHT22;276;48.392;9.950;2023-02-15T19:47:16;5.90;99.90
580;DHT22;276;48.392;9.950;2023-02-15T19:49:44;5.90;99.90
580;DHT22;276;48.392;9.950;2023-02-15T19:52:27;5.90;99.90
580;DHT22;276;48.392;9.950;2023-02-15T19:54:55;5.90;99.90
580;DHT22;276;48.392;9.950;2023-02-15T19:57:21;5.80;99.90
580;DHT22;276;48.392;9.950;2023-02-15T19:59:49;5.80;99.90
580;DHT22;276;48.392;9.950;2023-02-15T20:02:17;5.80;99.90
580;DHT22;276;48.392;9.950;2023-02-15T20:04:46;5.80;99.90
580;DHT22;276;48.392;9.950;2023-02-15T20:07:25;5.90;99.90
580;DHT22;276;48.392;9.950;2023-02-15T20:09:51;5.90;99.90
580;DHT22;276;48.392;9.950;2023-02-15T20:12:20;5.90;99.90
580;DHT22;276;48.392;9.950;2023-02-15T20:14:49;5.90;99.90
580;DHT22;276;48.392;9.950;2023-02-15T20:17:17;5.90;99.90
580;DHT22;276;48.392;9.950;2023-02-15T20:19:43;5.90;99.90
580;DHT22;276;48.392;9.950;2023-02-15T20:22:22;5.90;99.90
580;DHT22;276;48.392;9.950;2023-02-15T20:24:48;5.80;99.90
580;DHT22;276;48.392;9.950;2023-02-15T20:27:17;5.80;99.90
580;DHT22;276;48.392;9.950;2023-02-15T20:29:45;5.80;99.90
580;DHT22;276;48.392;9.950;2023-02-15T20:32:13;5.70;99.90
580;DHT22;276;48.392;9.950;2023-02-15T20:34:41;5.70;99.90
580;DHT22;276;48.392;9.950;2023-02-15T20:37:26;5.70;99.90
580;DHT22;276;48.392;9.950;2023-02-15T20:39:55;5.70;99.90
580;DHT22;276;48.392;9.950;2023-02-15T20:42:23;5.70;99.90
580;DHT22;276;48.392;9.950;2023-02-15T20:44:51;5.70;99.90
580;DHT22;276;48.392;9.950;2023-02-15T20:47:19;5.70;99.90
580;DHT22;276;48.392;9.950;2023-02-15T20:49:47;5.60;99.90
580;DHT22;276;48.392;9.950;2023-02-15T20:52:18;5.60;99.90
580;DHT22;276;48.392;9.950;2023-02-15T20:54:44;5.60;99.90
580;DHT22;276;48.392;9.950;2023-02-15T20:57:14;5.60;99.90
580;DHT22;276;48.392;9.950;2023-02-15T20:59:43;5.60;99.90
580;DHT22;276;48.392;9.950;2023-02-15T21:02:21;5.60;99.90
580;DHT22;276;48.392;9.950;2023-02-15T21:04:49;5.60;99.90
580;DHT22;276;48.392;9.950;2023-02-15T21:07:20;5.50;99.90
580;DHT22;276;48.392;9.950;2023-02-15T21:09:46;5.60;99.90
580;DHT22;276;48.392;9.950;2023-02-15T21:12:16;5.50;99.90
580;DHT22;276;48.392;9.950;2023-02-15T21:14:45;5.50;99.90